Time;durP1;ratioP1;P1;durP2;ratioP2;P2;SDS_P1;SDS_P2;PMS_P1;PMS_P2;Temp;Humidity;BMP_temperature;BMP_pressure;BME280_temperature;BME280_humidity;BME280_pressure;Samples;Min_cycle;Max_cycle;Signal;HPM_P1;HPM_P2
2021/11/20 11:15:42;;;;;;;20.38;10.82;;;;;;;1.17;100.00;95950.13;5095032;27;20212;-63
2021/11/20 11:18:26;;;;;;;19.55;11.35;;;;;;;1.14;100.00;95884.53;5068773;28;20499;-63
2021/11/20 11:21:36;;;;;;;17.63;10.98;;;;;;;1.12;100.00;95817.94;5067296;28;20068;-64
2021/11/20 11:24:32;;;;;;;17.02;9.93;;;;;;;1.19;100.00;95773.13;5041047;28;20095;-64
2021/11/20 11:27:22;;;;;;;16.52;9.95;;;;;;;1.23;100.00;95734.00;5064308;28;20035;-64
2021/11/20 11:30:02;;;;;;;14.93;9.80;;;;;;;1.21;100.00;95699.09;5043285;28;20098;-64
2021/11/20 11:32:30;;;;;;;13.38;8.60;;;;;;;1.20;100.00;95679.81;5061047;28;20372;-63
2021/11/20 11:35:00;;;;;;;14.63;8.60;;;;;;;1.17;100.00;95659.06;5064245;28;20099;-63
2021/11/20 11:37:45;;;;;;;13.95;8.48;;;;;;;1.20;100.00;95631.50;5064700;28;20024;-64
2021/11/20 11:40:38;;;;;;;12.48;7.88;;;;;;;1.23;100.00;95616.09;5060341;28;20037;-63
2021/11/20 11:43:26;;;;;;;14.27;8.23;;;;;;;1.25;100.00;95600.06;5067580;28;20143;-63
2021/11/20 11:46:01;;;;;;;12.38;8.43;;;;;;;1.27;100.00;95585.66;5061029;28;20029;-62
2021/11/20 11:48:45;;;;;;;12.95;7.65;;;;;;;1.28;100.00;95575.91;5063120;28;20037;-63
2021/11/20 11:51:29;;;;;;;13.18;7.90;;;;;;;1.32;100.00;95562.16;5066311;28;20525;-63
2021/11/20 11:54:03;;;;;;;12.23;8.13;;;;;;;1.26;100.00;95559.47;5070205;28;20035;-63
2021/11/20 11:56:38;;;;;;;11.82;7.35;;;;;;;1.31;100.00;95549.16;5072328;28;20108;-63
2021/11/20 11:59:12;;;;;;;11.02;7.30;;;;;;;1.35;100.00;95538.00;5051977;28;20032;-63
2021/11/20 12:02:04;;;;;;;10.85;7.22;;;;;;;1.36;100.00;95536.16;5060580;28;20029;-63
2021/11/20 12:04:29;;;;;;;12.50;7.60;;;;;;;1.40;100.00;95532.94;5069051;28;20407;-63
2021/11/20 12:07:04;;;;;;;11.07;7.60;;;;;;;1.44;100.00;95523.63;5069533;28;20025;-63
2021/11/20 12:09:33;;;;;;;10.93;7.57;;;;;;;1.47;100.00;95519.78;5067801;28;20090;-64
2021/11/20 12:12:12;;;;;;;10.60;6.85;;;;;;;1.47;100.00;95511.03;5044422;28;20021;-63
2021/11/20 12:14:44;;;;;;;11.90;7.43;;;;;;;1.47;100.00;95511.84;5044183;28;20132;-63
2021/11/20 12:17:57;;;;;;;11.10;7.07;;;;;;;1.48;100.00;95504.75;5043317;28;20499;-63
2021/11/20 12:20:39;;;;;;;9.45;6.22;;;;;;;1.52;100.00;95503.31;5058215;28;20024;-62
2021/11/20 12:23:23;;;;;;;10.05;7.05;;;;;;;1.56;100.00;95508.03;5031720;28;20421;-63
2021/11/20 12:25:53;;;;;;;11.32;7.43;;;;;;;1.58;100.00;95505.19;5037845;28;20028;-63
2021/11/20 12:28:57;;;;;;;10.40;6.47;;;;;;;1.57;100.00;95498.28;5032098;28;20037;-61
2021/11/20 12:31:25;;;;;;;10.13;6.80;;;;;;;1.59;100.00;95509.44;5032251;28;20048;-63
2021/11/20 12:34:16;;;;;;;8.65;6.20;;;;;;;1.57;100.00;95504.38;5050198;28;20668;-63
2021/11/20 12:37:32;;;;;;;10.20;6.72;;;;;;;1.56;100.00;95497.47;5051683;28;20580;-63
2021/11/20 12:40:16;;;;;;;9.48;6.63;;;;;;;1.56;100.00;95489.53;5006778;28;20033;-63
2021/11/20 12:43:36;;;;;;;11.68;7.20;;;;;;;1.58;100.00;95494.63;5051950;28;20151;-63
2021/11/20 12:46:44;;;;;;;10.05;6.78;;;;;;;1.53;100.00;95497.88;5049872;28;20060;-63
2021/11/20 12:49:30;;;;;;;9.68;6.82;;;;;;;1.52;100.00;95498.03;5013505;28;20040;-63
2021/11/20 12:52:01;;;;;;;10.35;6.70;;;;;;;1.52;100.00;95492.75;5058482;28;20391;-63
2021/11/20 12:54:58;;;;;;;10.38;7.00;;;;;;;1.53;100.00;95499.69;5059458;28;20057;-63
2021/11/20 12:57:26;;;;;;;12.00;6.85;;;;;;;1.53;100.00;95502.34;5031036;28;20068;-63
2021/11/20 13:00:13;;;;;;;9.68;6.22;;;;;;;1.51;100.00;95501.69;5036285;28;20045;-63
2021/11/20 13:03:10;;;;;;;11.15;6.95;;;;;;;1.59;100.00;95504.16;5026588;28;20029;-63
2021/11/20 13:05:48;;;;;;;10.23;6.53;;;;;;;1.61;100.00;95507.41;5040991;28;20020;-63
2021/11/20 13:08:22;;;;;;;11.65;7.20;;;;;;;1.55;100.00;95498.47;5071661;28;20033;-63
2021/11/20 13:11:12;;;;;;;11.15;7.20;;;;;;;1.56;100.00;95496.66;5072935;28;20143;-63
2021/11/20 13:13:46;;;;;;;11.00;6.82;;;;;;;1.55;100.00;95492.38;5070719;28;20045;-63
2021/11/20 13:16:49;;;;;;;14.50;7.40;;;;;;;1.52;100.00;95483.03;5062379;28;20110;-63
2021/11/20 13:19:24;;;;;;;10.75;6.68;;;;;;;1.48;100.00;95483.63;5041202;28;20403;-63
2021/11/20 13:21:52;;;;;;;10.40;6.35;;;;;;;1.48;100.00;95487.06;5045372;28;20120;-64
2021/11/20 13:24:23;;;;;;;10.82;7.38;;;;;;;1.49;100.00;95483.41;5072170;28;20067;-63
2021/11/20 13:27:06;;;;;;;11.10;6.82;;;;;;;1.50;100.00;95479.78;5071760;28;20028;-63
2021/11/20 13:29:40;;;;;;;9.57;6.97;;;;;;;1.52;100.00;95475.13;5071147;28;20035;-63
2021/11/20 13:32:08;;;;;;;11.80;7.22;;;;;;;1.58;100.00;95471.69;5068308;28;20024;-64
2021/11/20 13:34:34;;;;;;;10.70;6.85;;;;;;;1.63;100.00;95468.47;5056237;28;20029;-63
2021/11/20 13:37:00;;;;;;;11.68;7.60;;;;;;;1.66;100.00;95474.13;5069958;28;20031;-63
2021/11/20 13:39:25;;;;;;;10.82;7.40;;;;;;;1.63;100.00;95474.53;5071117;28;20043;-63
2021/11/20 13:41:56;;;;;;;10.70;7.47;;;;;;;1.57;100.00;95470.06;5054518;28;20131;-64
2021/11/20 13:44:22;;;;;;;10.32;6.53;;;;;;;1.56;100.00;95473.72;5070552;28;20028;-64
2021/11/20 13:46:51;;;;;;;11.95;7.80;;;;;;;1.53;100.00;95463.56;5072024;28;20027;-63
2021/11/20 13:49:17;;;;;;;10.70;7.15;;;;;;;1.51;100.00;95465.56;5062590;28;20029;-63
2021/11/20 13:51:42;;;;;;;11.32;7.40;;;;;;;1.51;100.00;95467.38;5070661;28;20031;-63
2021/11/20 13:54:11;;;;;;;10.68;7.25;;;;;;;1.52;100.00;95464.56;5071616;28;20125;-63
2021/11/20 13:56:38;;;;;;;9.82;7.13;;;;;;;1.51;100.00;95460.28;5040636;28;20064;-63
2021/11/20 13:59:09;;;;;;;12.65;7.07;;;;;;;1.49;100.00;95459.66;5071810;28;20823;-63
2021/11/20 14:01:55;;;;;;;11.48;7.25;;;;;;;1.47;100.00;95458.25;5070458;28;20036;-64
2021/11/20 14:04:24;;;;;;;11.23;7.78;;;;;;;1.47;100.00;95458.25;5064142;28;20028;-63
2021/11/20 14:07:04;;;;;;;12.07;7.88;;;;;;;1.43;100.00;95453.38;5070454;28;20031;-64
2021/11/20 14:09:32;;;;;;;12.90;7.80;;;;;;;1.47;100.00;95445.03;5070438;28;20055;-63
2021/11/20 14:12:09;;;;;;;10.82;7.55;;;;;;;1.42;100.00;95440.38;5070353;28;20173;-63
2021/11/20 14:14:34;;;;;;;12.30;8.02;;;;;;;1.35;100.00;95443.00;5065634;28;20037;-63
2021/11/20 14:17:10;;;;;;;10.48;7.38;;;;;;;1.37;100.00;95445.41;5050555;28;20024;-63
2021/11/20 14:19:36;;;;;;;14.15;8.50;;;;;;;1.38;100.00;95441.78;5071005;28;20103;-63
2021/11/20 14:22:07;;;;;;;11.13;7.60;;;;;;;1.38;100.00;95444.41;5069706;28;20112;-63
2021/11/20 14:24:35;;;;;;;11.85;7.90;;;;;;;1.31;100.00;95454.97;5069321;28;20404;-63
2021/11/20 14:27:01;;;;;;;13.48;8.10;;;;;;;1.30;100.00;95455.97;5043967;28;20028;-63
2021/11/20 14:29:32;;;;;;;15.23;8.98;;;;;;;1.29;100.00;95458.78;5049686;28;20032;-62
2021/11/20 14:31:59;;;;;;;13.15;7.80;;;;;;;1.29;100.00;95448.22;5057326;28;20077;-62
2021/11/20 14:34:45;;;;;;;13.77;8.50;;;;;;;1.31;100.00;95448.88;5033695;28;20056;-62
2021/11/20 14:37:18;;;;;;;12.85;8.65;;;;;;;1.34;100.00;95441.38;5054001;28;20043;-63
2021/11/20 14:40:00;;;;;;;12.77;8.43;;;;;;;1.36;100.00;95441.16;5049272;28;20071;-62
2021/11/20 14:42:28;;;;;;;12.73;8.30;;;;;;;1.37;100.00;95450.69;5055681;28;20036;-63
2021/11/20 14:45:21;;;;;;;11.80;8.10;;;;;;;1.34;100.00;95445.81;5050121;28;20266;-62
2021/11/20 14:47:56;;;;;;;12.82;8.55;;;;;;;1.34;100.00;95444.00;5049815;28;20538;-63
2021/11/20 14:50:24;;;;;;;12.50;8.35;;;;;;;1.36;100.00;95449.06;5049401;28;20037;-63
2021/11/20 14:53:02;;;;;;;13.43;8.48;;;;;;;1.39;100.00;95440.75;5049485;28;20075;-63
2021/11/20 14:55:50;;;;;;;11.57;8.32;;;;;;;1.42;100.00;95440.38;5052936;28;20025;-61
2021/11/20 14:58:18;;;;;;;12.48;8.43;;;;;;;1.43;100.00;95444.63;5018584;28;20124;-63
2021/11/20 15:00:51;;;;;;;13.32;8.40;;;;;;;1.44;100.00;95441.81;5047670;28;20031;-60
2021/11/20 15:03:20;;;;;;;13.30;8.85;;;;;;;1.45;100.00;95435.50;5046233;28;20028;-63
2021/11/20 15:05:47;;;;;;;13.00;9.02;;;;;;;1.44;100.00;95433.06;5050152;28;20028;-63
2021/11/20 15:08:13;;;;;;;14.15;9.35;;;;;;;1.40;100.00;95430.00;5055405;28;20075;-64
2021/11/20 15:10:40;;;;;;;14.02;8.50;;;;;;;1.35;100.00;95419.22;5056991;28;20151;-63
2021/11/20 15:13:05;;;;;;;11.30;8.38;;;;;;;1.30;100.00;95426.94;5051130;28;20495;-63
2021/11/20 15:15:31;;;;;;;14.65;9.07;;;;;;;1.26;100.00;95427.53;5029972;28;20044;-63
2021/11/20 15:17:57;;;;;;;12.52;8.25;;;;;;;1.24;100.00;95424.28;5062319;28;20136;-63
2021/11/20 15:20:22;;;;;;;11.80;8.05;;;;;;;1.23;100.00;95431.38;5050457;28;20095;-62
2021/11/20 15:22:47;;;;;;;14.18;8.98;;;;;;;1.21;100.00;95419.41;5052539;28;20049;-63
2021/11/20 15:25:14;;;;;;;14.63;8.77;;;;;;;1.20;100.00;95425.69;5051460;28;20068;-63
2021/11/20 15:27:43;;;;;;;11.77;8.35;;;;;;;1.19;100.00;95424.84;5039313;28;20021;-63
2021/11/20 15:30:10;;;;;;;17.42;9.70;;;;;;;1.17;100.00;95419.78;5049715;28;20387;-63
2021/11/20 15:32:35;;;;;;;13.70;9.05;;;;;;;1.16;100.00;95407.59;5039431;28;20033;-63
2021/11/20 15:35:04;;;;;;;14.32;8.30;;;;;;;1.15;100.00;95415.72;5032337;28;20383;-63
2021/11/20 15:37:29;;;;;;;12.30;8.20;;;;;;;1.14;100.00;95414.09;5054631;28;20035;-62
2021/11/20 15:39:55;;;;;;;13.07;8.57;;;;;;;1.13;100.00;95401.91;5045756;28;20032;-62
2021/11/20 15:42:21;;;;;;;13.38;8.30;;;;;;;1.12;100.00;95398.47;5031945;28;20109;-63
2021/11/20 15:44:47;;;;;;;12.82;8.68;;;;;;;1.12;100.00;95395.03;5041816;28;20044;-63
2021/11/20 15:47:12;;;;;;;13.65;8.07;;;;;;;1.11;100.00;95394.22;5042655;28;20033;-63
2021/11/20 15:49:38;;;;;;;11.50;8.00;;;;;;;1.09;100.00;95387.50;5048094;28;20021;-63
2021/11/20 15:52:04;;;;;;;13.73;9.13;;;;;;;1.06;100.00;95391.34;5038183;28;20026;-64
2021/11/20 15:54:32;;;;;;;10.77;8.15;;;;;;;1.09;100.00;95398.06;5050459;28;20078;-63
2021/11/20 15:56:58;;;;;;;14.65;9.18;;;;;;;1.05;100.00;95387.06;5031574;28;20029;-61
2021/11/20 15:59:28;;;;;;;12.25;8.50;;;;;;;1.05;100.00;95384.44;5045423;28;20037;-57
2021/11/20 16:01:54;;;;;;;14.65;9.68;;;;;;;1.05;100.00;95386.25;5030179;28;20052;-61
2021/11/20 16:04:21;;;;;;;15.05;9.27;;;;;;;1.04;100.00;95389.91;5045300;28;20064;-59
2021/11/20 16:06:47;;;;;;;14.93;9.48;;;;;;;1.04;100.00;95384.63;5046418;28;20055;-60
2021/11/20 16:09:12;;;;;;;12.95;8.57;;;;;;;1.04;100.00;95387.28;5044379;28;20057;-60
2021/11/20 16:11:40;;;;;;;13.05;9.05;;;;;;;1.04;100.00;95379.38;5055237;28;20040;-59
2021/11/20 16:14:05;;;;;;;14.77;9.00;;;;;;;1.02;100.00;95374.28;5054450;28;20985;-64
2021/11/20 16:16:34;;;;;;;13.40;8.48;;;;;;;1.01;100.00;95379.75;5050519;28;20059;-61
2021/11/20 16:19:02;;;;;;;13.85;9.40;;;;;;;0.98;100.00;95386.25;5041003;28;20026;-57
2021/11/20 16:21:27;;;;;;;14.60;9.55;;;;;;;0.95;100.00;95377.91;5048828;28;20030;-62
2021/11/20 16:23:53;;;;;;;17.05;9.32;;;;;;;0.92;100.00;95380.94;5050707;28;20052;-64
2021/11/20 16:26:18;;;;;;;17.75;9.93;;;;;;;0.92;100.00;95386.22;5031029;28;20112;-59
2021/11/20 16:28:43;;;;;;;15.82;10.00;;;;;;;0.90;100.00;95378.50;5028930;28;20369;-59
2021/11/20 16:31:10;;;;;;;15.57;9.82;;;;;;;0.90;100.00;95386.41;5049109;28;20029;-59
2021/11/20 16:33:36;;;;;;;15.98;9.23;;;;;;;0.90;100.00;95386.41;5030154;28;20021;-61
2021/11/20 16:36:02;;;;;;;15.07;9.15;;;;;;;0.89;100.00;95381.34;5044905;28;20420;-58
2021/11/20 16:38:45;;;;;;;12.65;8.25;;;;;;;0.88;100.00;95367.34;5020732;28;20426;-59
2021/11/20 16:41:10;;;;;;;;;;;;;;;0.86;100.00;95361.44;5034293;28;20026;-62
2021/11/20 16:43:36;;;;;;;13.40;8.53;;;;;;;0.86;100.00;95358.81;5034770;28;20323;-59
2021/11/20 16:46:01;;;;;;;14.93;8.90;;;;;;;0.86;100.00;95358.81;5034737;28;20626;-58
2021/11/20 16:48:26;;;;;;;15.23;8.63;;;;;;;0.86;100.00;95356.97;5040202;28;20029;-59
2021/11/20 16:51:00;;;;;;;15.90;9.45;;;;;;;0.86;100.00;95361.44;5042643;28;20077;-61
2021/11/20 16:53:26;;;;;;;15.80;9.20;;;;;;;0.84;100.00;95353.72;5034568;28;20041;-59
2021/11/20 16:55:51;;;;;;;16.17;9.80;;;;;;;0.85;100.00;95352.72;5034510;28;20025;-60
2021/11/20 16:58:17;;;;;;;17.20;9.95;;;;;;;0.85;100.00;95346.63;5036076;28;20033;-58
2021/11/20 17:00:43;;;;;;;14.63;8.70;;;;;;;0.84;100.00;95348.47;5037623;28;20034;-60
2021/11/20 17:03:09;;;;;;;16.13;10.07;;;;;;;0.83;100.00;95346.03;5042105;28;20036;-60
2021/11/20 17:05:34;;;;;;;16.25;10.05;;;;;;;0.82;100.00;95339.13;5037652;28;20025;-59
2021/11/20 17:08:00;;;;;;;18.00;10.65;;;;;;;0.82;100.00;95333.84;5021915;28;20075;-62
2021/11/20 17:10:25;;;;;;;15.85;9.48;;;;;;;0.81;100.00;95333.03;5037883;28;20065;-60
2021/11/20 17:12:51;;;;;;;14.07;9.20;;;;;;;0.82;100.00;95323.31;5041101;28;20082;-62
2021/11/20 17:15:19;;;;;;;16.45;10.20;;;;;;;0.83;100.00;95319.66;5038350;28;20045;-61
2021/11/20 17:17:45;;;;;;;15.18;9.70;;;;;;;0.82;100.00;95318.84;5020546;28;20048;-60
2021/11/20 17:20:10;;;;;;;14.70;9.48;;;;;;;0.81;100.00;95314.59;5034469;28;20049;-61
2021/11/20 17:22:43;;;;;;;16.70;9.50;;;;;;;0.82;100.00;95316.22;5027825;28;20091;-60
2021/11/20 17:25:12;;;;;;;;;;;;;;;0.82;100.00;95315.41;5016135;28;20028;-61
2021/11/20 17:27:39;;;;;;;15.82;9.43;;;;;;;0.82;100.00;95302.22;5031701;28;19909;-62
2021/11/20 17:30:09;;;;;;;14.80;9.18;;;;;;;0.80;100.00;95301.59;5048004;28;20025;-59
2021/11/20 17:32:38;;;;;;;15.80;9.77;;;;;;;0.79;100.00;95302.63;5043530;28;20455;-61
2021/11/20 17:35:04;;;;;;;21.65;9.57;;;;;;;0.79;100.00;95295.53;5028625;28;20021;-58
2021/11/20 17:37:32;;;;;;;16.27;10.30;;;;;;;0.79;100.00;95297.34;5031830;28;20361;-61
2021/11/20 17:39:57;;;;;;;15.60;9.57;;;;;;;0.78;100.00;95293.09;5032817;28;20033;-60
2021/11/20 17:42:25;;;;;;;16.05;9.60;;;;;;;0.78;100.00;95287.81;5015227;28;20082;-64
2021/11/20 17:45:00;;;;;;;17.10;10.20;;;;;;;0.77;100.00;95287.00;5032651;28;20025;-64
2021/11/20 17:47:25;;;;;;;16.85;10.02;;;;;;;0.79;100.00;95284.16;5032885;28;20029;-61
2021/11/20 17:49:54;;;;;;;16.10;9.93;;;;;;;0.80;100.00;95272.59;5031348;28;20112;-63
2021/11/20 17:52:19;;;;;;;17.40;10.27;;;;;;;0.80;100.00;95268.13;5032787;28;20025;-60
2021/11/20 17:54:45;;;;;;;17.83;10.30;;;;;;;0.79;100.00;95269.16;5031119;28;20028;-61
2021/11/20 17:57:17;;;;;;;16.85;9.90;;;;;;;0.79;100.00;95260.44;5032618;28;20030;-60
2021/11/20 17:59:42;;;;;;;18.30;10.07;;;;;;;0.79;100.00;95250.69;5049536;28;20031;-60
2021/11/20 18:02:08;;;;;;;17.88;10.18;;;;;;;0.80;100.00;95248.88;5051390;28;20383;-63
2021/11/20 18:04:35;;;;;;;16.33;10.10;;;;;;;0.81;100.00;95246.03;5052378;28;20028;-61
2021/11/20 18:07:01;;;;;;;16.80;10.35;;;;;;;0.82;100.00;95242.38;5051190;28;20395;-59
2021/11/20 18:09:28;;;;;;;22.38;10.75;;;;;;;0.84;100.00;95235.06;5050984;28;20025;-63
2021/11/20 18:11:56;;;;;;;18.27;10.68;;;;;;;0.84;100.00;95234.25;5051046;28;20498;-61
2021/11/20 18:14:27;;;;;;;17.38;10.43;;;;;;;0.85;100.00;95233.25;5050557;28;20579;-61
2021/11/20 18:16:55;;;;;;;21.05;10.63;;;;;;;0.85;100.00;95234.06;5051072;28;20399;-61
2021/11/20 18:19:21;;;;;;;25.70;12.65;;;;;;;0.85;100.00;95231.41;5051073;28;20052;-60
2021/11/20 18:21:49;;;;;;;22.95;12.10;;;;;;;0.87;100.00;95225.97;5050882;28;20068;-61
2021/11/20 18:24:15;;;;;;;24.75;12.38;;;;;;;0.86;100.00;95214.59;5024385;28;20022;-61
2021/11/20 18:26:41;;;;;;;18.65;10.95;;;;;;;0.88;100.00;95216.22;5030619;28;20033;-60
2021/11/20 18:29:06;;;;;;;21.10;11.70;;;;;;;0.89;100.00;95208.13;5031009;28;20477;-63
2021/11/20 18:31:34;;;;;;;20.15;11.45;;;;;;;0.89;100.00;95202.84;5032005;28;20029;-59
2021/11/20 18:33:59;;;;;;;19.63;11.30;;;;;;;0.91;100.00;95200.81;5032036;28;20079;-61
2021/11/20 18:36:25;;;;;;;18.90;11.43;;;;;;;0.92;100.00;95206.91;5030369;28;20033;-61
2021/11/20 18:38:50;;;;;;;22.30;11.88;;;;;;;0.92;100.00;95205.06;5030714;28;20181;-63
2021/11/20 18:41:16;;;;;;;18.33;11.25;;;;;;;0.93;100.00;95208.50;5030369;28;20185;-61
2021/11/20 18:43:44;;;;;;;23.20;11.32;;;;;;;0.93;100.00;95198.78;5031802;28;20025;-60
2021/11/20 18:46:11;;;;;;;20.65;11.63;;;;;;;0.94;100.00;95199.59;5026663;28;20102;-59
2021/11/20 18:48:40;;;;;;;21.60;10.48;;;;;;;0.95;100.00;95188.03;5030575;28;20503;-64
2021/11/20 18:51:21;;;;;;;20.20;11.65;;;;;;;0.96;100.00;95193.09;5030319;28;20056;-63
2021/11/20 18:53:47;;;;;;;22.35;11.20;;;;;;;0.98;100.00;95190.28;5030451;28;20025;-63
2021/11/20 18:56:12;;;;;;;20.60;11.38;;;;;;;0.97;100.00;95188.63;5031513;28;20112;-64
2021/11/20 18:58:38;;;;;;;20.15;11.77;;;;;;;0.97;100.00;95194.72;5038758;28;20163;-60
2021/11/20 19:01:04;;;;;;;18.90;11.23;;;;;;;0.98;100.00;95180.53;5028313;28;20029;-61
2021/11/20 19:03:29;;;;;;;19.88;11.50;;;;;;;1.00;100.00;95183.78;5021563;28;20083;-60
2021/11/20 19:05:55;;;;;;;21.35;11.77;;;;;;;1.00;100.00;95183.78;5027109;28;20112;-60
2021/11/20 19:08:21;;;;;;;22.55;12.10;;;;;;;1.02;100.00;95178.31;5030291;28;20365;-60
2021/11/20 19:10:53;;;;;;;19.67;10.93;;;;;;;1.02;100.00;95175.66;5031611;28;20034;-60
2021/11/20 19:13:21;;;;;;;20.93;12.40;;;;;;;1.03;100.00;95174.63;5033479;28;20472;-61
2021/11/20 19:15:46;;;;;;;21.02;11.65;;;;;;;1.03;100.00;95167.53;5031267;28;20319;-61
2021/11/20 19:18:12;;;;;;;20.00;11.40;;;;;;;1.04;100.00;95166.53;5030199;28;20053;-60
2021/11/20 19:20:40;;;;;;;18.90;11.45;;;;;;;1.06;100.00;95167.13;5031339;28;20036;-59
2021/11/20 19:23:11;;;;;;;17.58;10.80;;;;;;;1.06;100.00;95169.75;5031569;28;20025;-59
2021/11/20 19:25:38;;;;;;;19.48;11.32;;;;;;;1.07;100.00;95163.47;5030181;28;20032;-61
2021/11/20 19:28:07;;;;;;;24.83;13.45;;;;;;;1.09;100.00;95164.09;5026966;28;20050;-59
2021/11/20 19:30:37;;;;;;;21.75;12.30;;;;;;;1.11;100.00;95153.34;5030218;28;20053;-60
2021/11/20 19:33:03;;;;;;;32.78;16.52;;;;;;;1.10;100.00;95155.16;5031498;28;20029;-63
2021/11/20 19:35:28;;;;;;;23.08;13.13;;;;;;;1.12;100.00;95150.50;5032040;28;20021;-59
2021/11/20 19:37:53;;;;;;;22.13;13.93;;;;;;;1.14;100.00;95145.00;5048562;28;20052;-59
2021/11/20 19:40:19;;;;;;;25.73;14.35;;;;;;;1.16;100.00;95142.97;5035472;28;20108;-59
2021/11/20 19:42:45;;;;;;;22.35;13.20;;;;;;;1.19;100.00;95141.75;5048523;28;20029;-58
2021/11/20 19:45:16;;;;;;;25.42;14.75;;;;;;;1.20;100.00;95148.66;5055136;28;20021;-61
2021/11/20 19:47:42;;;;;;;35.97;19.35;;;;;;;1.20;100.00;95136.28;5053704;28;20017;-61
2021/11/20 19:50:11;;;;;;;33.38;18.05;;;;;;;1.22;100.00;95138.72;5055209;28;20025;-63
2021/11/20 19:52:40;;;;;;;21.98;13.25;;;;;;;1.21;100.00;95132.63;5022218;28;20025;-61
2021/11/20 19:55:12;;;;;;;22.30;12.73;;;;;;;1.23;100.00;95130.59;5011833;28;20025;-59
2021/11/20 19:57:42;;;;;;;30.20;18.77;;;;;;;1.25;100.00;95127.75;5046241;28;20041;-64
2021/11/20 20:00:19;;;;;;;25.58;14.13;;;;;;;1.26;100.00;95127.53;5040859;28;20026;-62
2021/11/20 20:02:47;;;;;;;23.45;12.98;;;;;;;1.26;100.00;95124.91;5033699;28;20036;-60
2021/11/20 20:05:13;;;;;;;22.88;14.48;;;;;;;1.27;100.00;95120.44;5034732;28;20381;-58
2021/11/20 20:07:39;;;;;;;23.75;14.20;;;;;;;1.27;100.00;95123.88;5049311;28;20026;-60
2021/11/20 20:10:16;;;;;;;26.20;14.77;;;;;;;1.30;100.00;95117.38;5026495;28;20389;-60
2021/11/20 20:12:44;;;;;;;22.75;14.13;;;;;;;1.30;100.00;95125.28;5033318;28;20392;-59
2021/11/20 20:15:10;;;;;;;23.13;12.73;;;;;;;1.30;100.00;95117.38;5030218;28;20048;-61
2021/11/20 20:17:38;;;;;;;27.50;16.17;;;;;;;1.29;100.00;95119.19;5016652;28;20021;-62
2021/11/20 20:20:07;;;;;;;25.40;14.90;;;;;;;1.29;100.00;95113.91;5034390;28;20037;-62
2021/11/20 20:22:33;;;;;;;29.98;15.00;;;;;;;1.27;100.00;95110.69;5034503;28;20029;-61
2021/11/20 20:24:58;;;;;;;32.83;17.83;;;;;;;1.28;100.00;95116.78;5032948;28;20468;-59
2021/11/20 20:27:24;;;;;;;28.83;16.90;;;;;;;1.29;100.00;95111.28;5021692;28;20024;-61
2021/11/20 20:29:50;;;;;;;27.45;16.50;;;;;;;1.29;100.00;95107.84;5046417;28;20037;-61
2021/11/20 20:32:18;;;;;;;32.33;17.02;;;;;;;1.29;100.00;95113.91;5034482;28;20030;-56
2021/11/20 20:34:47;;;;;;;25.52;14.65;;;;;;;1.27;100.00;95113.31;5032734;28;20025;-61
2021/11/20 20:37:12;;;;;;;30.95;16.80;;;;;;;1.27;100.00;95110.69;5033031;28;20029;-59
2021/11/20 20:39:38;;;;;;;27.23;15.10;;;;;;;1.26;100.00;95100.34;5032670;28;20029;-58
2021/11/20 20:42:04;;;;;;;23.85;14.52;;;;;;;1.26;100.00;95100.34;5034687;28;20541;-60
2021/11/20 20:44:31;;;;;;;24.05;14.40;;;;;;;1.26;100.00;95087.97;5032854;28;20473;-59
2021/11/20 20:47:00;;;;;;;25.60;14.32;;;;;;;1.24;100.00;95082.09;5032281;28;20422;-59
2021/11/20 20:49:26;;;;;;;28.77;16.20;;;;;;;1.26;100.00;95081.88;5032571;28;20025;-60
2021/11/20 20:51:54;;;;;;;26.00;16.48;;;;;;;1.27;100.00;95075.56;5033936;28;20477;-61
2021/11/20 20:54:19;;;;;;;23.42;13.88;;;;;;;1.28;100.00;95069.28;5028870;28;20034;-60
2021/11/20 20:56:50;;;;;;;23.80;14.48;;;;;;;1.29;100.00;95065.63;5032422;28;20029;-61
2021/11/20 20:59:15;;;;;;;22.27;13.73;;;;;;;1.30;100.00;95067.22;5055654;28;20470;-61
2021/11/20 21:01:41;;;;;;;22.88;13.70;;;;;;;1.33;100.00;95067.66;5052480;28;20078;-60
2021/11/20 21:04:07;;;;;;;20.58;13.48;;;;;;;1.32;100.00;95058.13;5036039;28;20384;-63
2021/11/20 21:06:33;;;;;;;31.27;16.77;;;;;;;1.33;100.00;95058.94;5052100;28;20035;-61
2021/11/20 21:08:58;;;;;;;24.80;14.48;;;;;;;1.31;100.00;95059.13;5053931;28;20481;-60
2021/11/20 21:11:24;;;;;;;46.15;13.93;;;;;;;1.27;100.00;95057.91;5049015;28;20108;-62
2021/11/20 21:13:49;;;;;;;30.40;14.02;;;;;;;1.21;100.00;95053.47;5033419;28;20064;-60
2021/11/20 21:16:22;;;;;;;39.63;14.77;;;;;;;1.22;100.00;95052.47;5025836;28;20063;-60
2021/11/20 21:18:55;;;;;;;46.20;13.65;;;;;;;1.20;100.00;95038.69;5035489;28;20031;-61
2021/11/20 21:24:09;;;;;;;24.10;12.77;;;;;;;1.17;100.00;95033.78;5033642;28;20399;-64
2021/11/20 21:26:35;;;;;;;31.48;15.90;;;;;;;1.18;100.00;95032.78;5027981;28;20439;-59
2021/11/20 21:29:03;;;;;;;33.42;14.35;;;;;;;1.19;100.00;95025.66;5051975;28;20033;-61
2021/11/20 21:31:33;;;;;;;26.30;11.75;;;;;;;1.19;100.00;95028.31;5051719;28;20403;-57
2021/11/20 21:33:59;;;;;;;26.85;13.60;;;;;;;1.17;100.00;95025.88;5035687;28;20032;-61
2021/11/20 21:36:24;;;;;;;26.30;11.27;;;;;;;1.18;100.00;95022.22;5051554;28;20395;-59
2021/11/20 21:39:00;;;;;;;48.78;13.27;;;;;;;1.17;100.00;95018.78;5053075;28;20495;-58
2021/11/20 21:41:26;;;;;;;31.60;12.95;;;;;;;1.17;100.00;95028.50;5021986;28;20524;-59
2021/11/20 21:43:52;;;;;;;64.53;12.95;;;;;;;1.15;100.00;95017.38;5051111;28;20024;-60
2021/11/20 21:46:19;;;;;;;44.78;12.38;;;;;;;1.12;100.00;95015.97;5038043;28;20041;-58
2021/11/20 21:48:47;;;;;;;59.60;12.98;;;;;;;1.11;100.00;95019.63;5021545;28;20056;-60
2021/11/20 21:51:15;;;;;;;42.78;12.32;;;;;;;1.11;100.00;95018.81;5033587;28;20167;-61
2021/11/20 21:53:48;;;;;;;49.25;11.57;;;;;;;1.10;100.00;95006.66;5032154;28;20025;-60
2021/11/20 21:56:21;;;;;;;41.42;11.98;;;;;;;1.05;100.00;95009.88;5033462;28;20030;-61
2021/11/20 21:58:46;;;;;;;;;;;;;;;1.01;100.00;95005.25;5045081;22;20057;-67
2021/11/20 22:01:13;;;;;;;44.20;10.48;;;;;;;0.98;100.00;95001.19;4997773;28;19913;-67
2021/11/20 22:03:52;;;;;;;39.30;11.43;;;;;;;0.96;100.00;95000.56;5015746;28;20025;-67
2021/11/20 22:06:17;;;;;;;46.53;10.45;;;;;;;0.94;100.00;95005.25;5033123;28;20025;-67
2021/11/20 22:08:43;;;;;;;38.35;10.82;;;;;;;0.92;100.00;94988.03;5031964;28;20036;-67
2021/11/20 22:11:09;;;;;;;52.20;11.55;;;;;;;0.91;100.00;94995.13;4999327;28;20026;-67
2021/11/20 22:13:40;;;;;;;35.63;11.00;;;;;;;0.90;100.00;94982.16;5015396;28;20344;-67
2021/11/20 22:16:09;;;;;;;36.88;11.00;;;;;;;0.89;100.00;94985.81;5033183;28;20387;-67
2021/11/20 22:18:36;;;;;;;43.85;11.32;;;;;;;0.89;100.00;94977.91;5015439;28;20041;-67
2021/11/20 22:21:03;;;;;;;28.80;11.57;;;;;;;0.90;100.00;94971.59;4998952;28;20037;-67
2021/11/20 22:23:34;;;;;;;27.63;10.98;;;;;;;0.90;100.00;94975.03;5021310;28;20052;-67
2021/11/20 22:26:03;;;;;;;17.58;10.48;;;;;;;0.90;100.00;94967.13;5013435;28;20025;-67
2021/11/20 22:28:28;;;;;;;36.15;10.77;;;;;;;0.88;100.00;94963.91;5015731;28;20029;-66
2021/11/20 22:30:53;;;;;;;52.85;11.65;;;;;;;0.88;100.00;94969.19;4998987;28;20030;-67
2021/11/20 22:33:20;;;;;;;38.40;11.73;;;;;;;0.88;100.00;94965.72;5032799;28;20109;-66
2021/11/20 22:35:49;;;;;;;30.25;12.00;;;;;;;0.87;100.00;94962.28;5032683;28;20095;-66
2021/11/20 22:38:14;;;;;;;67.25;11.57;;;;;;;0.86;100.00;94964.09;5032507;28;20108;-67
2021/11/20 22:40:45;;;;;;;27.75;11.55;;;;;;;0.88;100.00;94955.19;5032664;28;20109;-67
2021/11/20 22:43:12;;;;;;;40.17;11.60;;;;;;;0.85;100.00;94954.56;5015679;28;20059;-66
2021/11/20 22:45:41;;;;;;;62.08;12.45;;;;;;;0.86;100.00;94947.47;5015424;28;20053;-67
2021/11/20 22:48:07;;;;;;;43.63;11.55;;;;;;;0.85;100.00;94949.28;4998246;28;20017;-67
2021/11/20 22:50:33;;;;;;;67.47;11.52;;;;;;;0.84;100.00;94939.75;5015003;28;20025;-67
